sensor_id;sensor_type;location;lat;lon;timestamp;P1;durP1;ratioP1;P2;durP2;ratioP2
18194;SDS011;9223;50.988;3.162;2023-08-20T00:03:30;8.40;;;2.65;;
18194;SDS011;9223;50.988;3.162;2023-08-20T00:09:34;5.15;;;2.08;;
18194;SDS011;9223;50.988;3.162;2023-08-20T00:15:37;6.28;;;2.20;;
18194;SDS011;9223;50.988;3.162;2023-08-20T00:21:43;4.07;;;2.10;;
18194;SDS011;9223;50.988;3.162;2023-08-20T00:27:47;6.18;;;2.05;;
18194;SDS011;9223;50.988;3.162;2023-08-20T00:33:51;4.55;;;2.35;;
18194;SDS011;9223;50.988;3.162;2023-08-20T00:40:09;8.00;;;2.25;;
18194;SDS011;9223;50.988;3.162;2023-08-20T00:46:13;3.53;;;2.08;;
18194;SDS011;9223;50.988;3.162;2023-08-20T00:52:17;4.03;;;2.10;;
18194;SDS011;9223;50.988;3.162;2023-08-20T00:58:22;6.65;;;2.70;;
18194;SDS011;9223;50.988;3.162;2023-08-20T01:04:26;4.13;;;2.10;;
18194;SDS011;9223;50.988;3.162;2023-08-20T01:10:33;5.45;;;2.90;;
18194;SDS011;9223;50.988;3.162;2023-08-20T01:16:40;4.80;;;2.17;;
18194;SDS011;9223;50.988;3.162;2023-08-20T01:22:51;5.63;;;2.50;;
18194;SDS011;9223;50.988;3.162;2023-08-20T01:28:59;3.35;;;2.00;;
18194;SDS011;9223;50.988;3.162;2023-08-20T01:35:03;5.45;;;2.30;;
18194;SDS011;9223;50.988;3.162;2023-08-20T01:41:07;3.42;;;1.95;;
18194;SDS011;9223;50.988;3.162;2023-08-20T01:47:12;5.30;;;2.50;;
18194;SDS011;9223;50.988;3.162;2023-08-20T01:53:16;4.05;;;2.08;;
18194;SDS011;9223;50.988;3.162;2023-08-20T01:59:21;5.55;;;2.42;;
18194;SDS011;9223;50.988;3.162;2023-08-20T02:11:41;6.28;;;2.28;;
18194;SDS011;9223;50.988;3.162;2023-08-20T02:17:45;3.83;;;2.22;;
18194;SDS011;9223;50.988;3.162;2023-08-20T02:23:48;3.80;;;2.58;;
18194;SDS011;9223;50.988;3.162;2023-08-20T02:29:53;5.40;;;2.80;;
18194;SDS011;9223;50.988;3.162;2023-08-20T02:36:00;4.72;;;2.17;;
18194;SDS011;9223;50.988;3.162;2023-08-20T02:42:04;6.03;;;2.28;;
18194;SDS011;9223;50.988;3.162;2023-08-20T02:48:09;5.18;;;1.90;;
18194;SDS011;9223;50.988;3.162;2023-08-20T02:54:13;6.28;;;2.25;;
18194;SDS011;9223;50.988;3.162;2023-08-20T03:00:16;4.32;;;2.50;;
18194;SDS011;9223;50.988;3.162;2023-08-20T03:06:21;4.45;;;2.40;;
18194;SDS011;9223;50.988;3.162;2023-08-20T03:12:24;5.55;;;2.35;;
18194;SDS011;9223;50.988;3.162;2023-08-20T03:18:28;3.92;;;2.58;;
18194;SDS011;9223;50.988;3.162;2023-08-20T03:24:33;5.18;;;2.50;;
18194;SDS011;9223;50.988;3.162;2023-08-20T03:30:36;3.95;;;2.80;;
18194;SDS011;9223;50.988;3.162;2023-08-20T03:36:41;6.03;;;2.47;;
18194;SDS011;9223;50.988;3.162;2023-08-20T03:42:46;8.43;;;2.83;;
18194;SDS011;9223;50.988;3.162;2023-08-20T03:48:49;6.05;;;2.80;;
18194;SDS011;9223;50.988;3.162;2023-08-20T03:54:52;6.95;;;2.97;;
18194;SDS011;9223;50.988;3.162;2023-08-20T04:00:57;4.85;;;2.78;;
18194;SDS011;9223;50.988;3.162;2023-08-20T04:07:01;4.68;;;2.70;;
18194;SDS011;9223;50.988;3.162;2023-08-20T04:13:04;4.90;;;2.80;;
18194;SDS011;9223;50.988;3.162;2023-08-20T04:19:09;4.78;;;2.70;;
18194;SDS011;9223;50.988;3.162;2023-08-20T04:25:13;7.00;;;3.15;;
18194;SDS011;9223;50.988;3.162;2023-08-20T04:31:16;5.35;;;3.15;;
18194;SDS011;9223;50.988;3.162;2023-08-20T04:37:21;5.43;;;3.42;;
18194;SDS011;9223;50.988;3.162;2023-08-20T04:43:25;6.80;;;3.00;;
18194;SDS011;9223;50.988;3.162;2023-08-20T04:49:28;7.18;;;3.05;;
18194;SDS011;9223;50.988;3.162;2023-08-20T04:55:33;4.80;;;2.80;;
18194;SDS011;9223;50.988;3.162;2023-08-20T05:01:37;7.53;;;2.92;;
18194;SDS011;9223;50.988;3.162;2023-08-20T05:07:41;4.75;;;3.38;;
18194;SDS011;9223;50.988;3.162;2023-08-20T05:13:47;9.15;;;2.60;;
18194;SDS011;9223;50.988;3.162;2023-08-20T05:19:50;7.53;;;3.67;;
18194;SDS011;9223;50.988;3.162;2023-08-20T05:25:54;4.85;;;3.58;;
18194;SDS011;9223;50.988;3.162;2023-08-20T05:31:59;4.82;;;3.17;;
18194;SDS011;9223;50.988;3.162;2023-08-20T05:38:02;6.07;;;3.13;;
18194;SDS011;9223;50.988;3.162;2023-08-20T05:44:06;3.33;;;3.03;;
18194;SDS011;9223;50.988;3.162;2023-08-20T05:50:11;6.63;;;3.47;;
18194;SDS011;9223;50.988;3.162;2023-08-20T05:56:14;4.43;;;3.38;;
18194;SDS011;9223;50.988;3.162;2023-08-20T06:02:18;7.88;;;4.30;;
18194;SDS011;9223;50.988;3.162;2023-08-20T06:08:22;6.45;;;4.05;;
18194;SDS011;9223;50.988;3.162;2023-08-20T06:14:26;6.07;;;3.85;;
18194;SDS011;9223;50.988;3.162;2023-08-20T06:20:29;5.65;;;3.92;;
18194;SDS011;9223;50.988;3.162;2023-08-20T06:26:34;5.80;;;3.08;;
18194;SDS011;9223;50.988;3.162;2023-08-20T06:32:38;7.43;;;3.97;;
18194;SDS011;9223;50.988;3.162;2023-08-20T06:38:41;7.40;;;3.42;;
18194;SDS011;9223;50.988;3.162;2023-08-20T06:44:46;6.00;;;3.10;;
18194;SDS011;9223;50.988;3.162;2023-08-20T06:50:50;7.90;;;3.55;;
18194;SDS011;9223;50.988;3.162;2023-08-20T06:56:53;5.00;;;2.80;;
18194;SDS011;9223;50.988;3.162;2023-08-20T07:02:58;5.82;;;2.40;;
18194;SDS011;9223;50.988;3.162;2023-08-20T07:09:02;5.15;;;2.67;;
18194;SDS011;9223;50.988;3.162;2023-08-20T07:15:06;6.07;;;2.75;;
18194;SDS011;9223;50.988;3.162;2023-08-20T07:21:11;7.85;;;3.50;;
18194;SDS011;9223;50.988;3.162;2023-08-20T07:27:15;5.28;;;3.05;;
18194;SDS011;9223;50.988;3.162;2023-08-20T07:33:18;3.47;;;2.45;;
18194;SDS011;9223;50.988;3.162;2023-08-20T07:39:23;2.65;;;1.48;;
18194;SDS011;9223;50.988;3.162;2023-08-20T07:45:27;4.28;;;1.80;;
18194;SDS011;9223;50.988;3.162;2023-08-20T07:51:30;7.32;;;2.30;;
18194;SDS011;9223;50.988;3.162;2023-08-20T07:57:35;4.25;;;2.08;;
18194;SDS011;9223;50.988;3.162;2023-08-20T08:03:39;5.63;;;1.90;;
18194;SDS011;9223;50.988;3.162;2023-08-20T08:09:43;4.57;;;1.90;;
18194;SDS011;9223;50.988;3.162;2023-08-20T08:15:49;2.40;;;1.23;;
18194;SDS011;9223;50.988;3.162;2023-08-20T08:21:54;2.15;;;1.42;;
18194;SDS011;9223;50.988;3.162;2023-08-20T08:27:57;2.60;;;1.10;;
18194;SDS011;9223;50.988;3.162;2023-08-20T08:34:03;4.40;;;1.80;;
18194;SDS011;9223;50.988;3.162;2023-08-20T08:40:07;3.22;;;1.52;;
18194;SDS011;9223;50.988;3.162;2023-08-20T08:46:11;4.43;;;1.35;;
18194;SDS011;9223;50.988;3.162;2023-08-20T08:52:17;3.50;;;1.30;;
18194;SDS011;9223;50.988;3.162;2023-08-20T08:58:20;3.22;;;1.10;;
18194;SDS011;9223;50.988;3.162;2023-08-20T09:04:24;2.85;;;1.08;;
18194;SDS011;9223;50.988;3.162;2023-08-20T09:10:29;3.42;;;1.20;;
18194;SDS011;9223;50.988;3.162;2023-08-20T09:16:33;2.53;;;0.70;;
18194;SDS011;9223;50.988;3.162;2023-08-20T09:22:36;2.88;;;0.80;;
18194;SDS011;9223;50.988;3.162;2023-08-20T09:28:42;1.55;;;0.80;;
18194;SDS011;9223;50.988;3.162;2023-08-20T09:34:45;3.28;;;1.20;;
18194;SDS011;9223;50.988;3.162;2023-08-20T09:40:49;2.60;;;0.80;;
18194;SDS011;9223;50.988;3.162;2023-08-20T09:46:55;3.50;;;1.00;;
18194;SDS011;9223;50.988;3.162;2023-08-20T09:53:01;2.28;;;0.70;;
18194;SDS011;9223;50.988;3.162;2023-08-20T09:59:06;1.80;;;0.80;;
18194;SDS011;9223;50.988;3.162;2023-08-20T10:05:11;1.23;;;0.88;;
18194;SDS011;9223;50.988;3.162;2023-08-20T10:11:16;2.05;;;0.70;;
18194;SDS011;9223;50.988;3.162;2023-08-20T10:17:21;1.50;;;0.45;;
18194;SDS011;9223;50.988;3.162;2023-08-20T10:23:26;3.97;;;0.80;;
18194;SDS011;9223;50.988;3.162;2023-08-20T10:29:36;2.50;;;0.90;;
18194;SDS011;9223;50.988;3.162;2023-08-20T10:35:47;1.45;;;0.60;;
18194;SDS011;9223;50.988;3.162;2023-08-20T10:41:57;1.05;;;0.80;;
18194;SDS011;9223;50.988;3.162;2023-08-20T10:48:11;1.10;;;0.75;;
18194;SDS011;9223;50.988;3.162;2023-08-20T10:54:15;1.38;;;0.70;;
18194;SDS011;9223;50.988;3.162;2023-08-20T11:00:20;0.85;;;0.43;;
18194;SDS011;9223;50.988;3.162;2023-08-20T11:06:23;1.10;;;0.50;;
18194;SDS011;9223;50.988;3.162;2023-08-20T11:12:29;2.17;;;0.93;;
18194;SDS011;9223;50.988;3.162;2023-08-20T11:18:34;2.50;;;1.10;;
18194;SDS011;9223;50.988;3.162;2023-08-20T11:24:37;3.22;;;1.20;;
18194;SDS011;9223;50.988;3.162;2023-08-20T11:30:41;2.33;;;0.77;;
18194;SDS011;9223;50.988;3.162;2023-08-20T11:36:46;2.42;;;0.88;;
18194;SDS011;9223;50.988;3.162;2023-08-20T11:42:49;4.20;;;1.38;;
18194;SDS011;9223;50.988;3.162;2023-08-20T11:49:00;3.70;;;1.20;;
18194;SDS011;9223;50.988;3.162;2023-08-20T11:55:06;1.70;;;0.88;;
18194;SDS011;9223;50.988;3.162;2023-08-20T12:01:10;2.42;;;0.68;;
18194;SDS011;9223;50.988;3.162;2023-08-20T12:07:16;2.15;;;1.00;;
18194;SDS011;9223;50.988;3.162;2023-08-20T12:13:21;2.58;;;1.00;;
18194;SDS011;9223;50.988;3.162;2023-08-20T12:19:25;2.42;;;1.00;;
18194;SDS011;9223;50.988;3.162;2023-08-20T12:25:30;2.33;;;0.73;;
18194;SDS011;9223;50.988;3.162;2023-08-20T12:31:35;3.97;;;1.10;;
18194;SDS011;9223;50.988;3.162;2023-08-20T12:37:38;1.55;;;0.70;;
18194;SDS011;9223;50.988;3.162;2023-08-20T12:43:42;1.65;;;0.85;;
18194;SDS011;9223;50.988;3.162;2023-08-20T12:49:47;2.70;;;1.33;;
18194;SDS011;9223;50.988;3.162;2023-08-20T12:55:50;2.20;;;0.80;;
18194;SDS011;9223;50.988;3.162;2023-08-20T13:01:54;0.98;;;0.70;;
18194;SDS011;9223;50.988;3.162;2023-08-20T13:08:01;1.52;;;0.85;;
18194;SDS011;9223;50.988;3.162;2023-08-20T13:14:05;1.40;;;0.52;;
18194;SDS011;9223;50.988;3.162;2023-08-20T13:20:08;1.63;;;0.80;;
18194;SDS011;9223;50.988;3.162;2023-08-20T13:26:14;7.15;;;1.80;;
18194;SDS011;9223;50.988;3.162;2023-08-20T13:32:17;5.28;;;1.45;;
18194;SDS011;9223;50.988;3.162;2023-08-20T13:38:20;4.47;;;1.52;;
18194;SDS011;9223;50.988;3.162;2023-08-20T13:44:25;4.60;;;1.50;;
18194;SDS011;9223;50.988;3.162;2023-08-20T13:50:30;4.47;;;1.85;;
18194;SDS011;9223;50.988;3.162;2023-08-20T13:56:33;2.20;;;1.23;;
18194;SDS011;9223;50.988;3.162;2023-08-20T14:02:38;4.55;;;1.40;;
18194;SDS011;9223;50.988;3.162;2023-08-20T14:08:42;4.55;;;1.40;;
18194;SDS011;9223;50.988;3.162;2023-08-20T14:14:46;5.28;;;1.58;;
18194;SDS011;9223;50.988;3.162;2023-08-20T14:20:50;5.10;;;1.50;;
18194;SDS011;9223;50.988;3.162;2023-08-20T14:26:54;2.78;;;1.38;;
18194;SDS011;9223;50.988;3.162;2023-08-20T14:32:57;3.92;;;0.95;;
18194;SDS011;9223;50.988;3.162;2023-08-20T14:39:02;3.40;;;1.23;;
18194;SDS011;9223;50.988;3.162;2023-08-20T14:45:06;2.55;;;0.93;;
18194;SDS011;9223;50.988;3.162;2023-08-20T14:51:10;5.50;;;1.30;;
18194;SDS011;9223;50.988;3.162;2023-08-20T14:57:15;3.53;;;1.40;;
18194;SDS011;9223;50.988;3.162;2023-08-20T15:03:19;3.00;;;1.15;;
18194;SDS011;9223;50.988;3.162;2023-08-20T15:09:22;5.90;;;1.38;;
18194;SDS011;9223;50.988;3.162;2023-08-20T15:15:27;3.35;;;1.25;;
18194;SDS011;9223;50.988;3.162;2023-08-20T15:21:30;3.40;;;0.80;;
18194;SDS011;9223;50.988;3.162;2023-08-20T15:27:34;1.58;;;0.85;;
18194;SDS011;9223;50.988;3.162;2023-08-20T15:33:40;2.47;;;1.10;;
18194;SDS011;9223;50.988;3.162;2023-08-20T15:39:43;2.03;;;0.82;;
18194;SDS011;9223;50.988;3.162;2023-08-20T15:45:46;2.40;;;1.15;;
18194;SDS011;9223;50.988;3.162;2023-08-20T15:51:51;3.50;;;1.10;;
18194;SDS011;9223;50.988;3.162;2023-08-20T15:57:55;1.70;;;0.93;;
18194;SDS011;9223;50.988;3.162;2023-08-20T16:03:59;2.95;;;1.10;;
18194;SDS011;9223;50.988;3.162;2023-08-20T16:10:04;2.80;;;1.00;;
18194;SDS011;9223;50.988;3.162;2023-08-20T16:16:10;3.38;;;1.02;;
18194;SDS011;9223;50.988;3.162;2023-08-20T16:22:14;1.95;;;1.10;;
18194;SDS011;9223;50.988;3.162;2023-08-20T16:28:19;2.53;;;0.77;;
18194;SDS011;9223;50.988;3.162;2023-08-20T16:34:22;2.80;;;0.90;;
18194;SDS011;9223;50.988;3.162;2023-08-20T16:40:26;2.58;;;0.70;;
18194;SDS011;9223;50.988;3.162;2023-08-20T16:46:31;1.48;;;0.70;;
18194;SDS011;9223;50.988;3.162;2023-08-20T16:52:35;2.38;;;1.35;;
18194;SDS011;9223;50.988;3.162;2023-08-20T16:58:39;3.15;;;1.13;;
18194;SDS011;9223;50.988;3.162;2023-08-20T17:04:43;3.60;;;1.10;;
18194;SDS011;9223;50.988;3.162;2023-08-20T17:10:47;4.60;;;1.30;;
18194;SDS011;9223;50.988;3.162;2023-08-20T17:16:50;3.47;;;0.77;;
18194;SDS011;9223;50.988;3.162;2023-08-20T17:22:55;3.60;;;1.02;;
18194;SDS011;9223;50.988;3.162;2023-08-20T17:28:59;3.75;;;1.00;;
18194;SDS011;9223;50.988;3.162;2023-08-20T17:35:04;2.00;;;0.88;;
18194;SDS011;9223;50.988;3.162;2023-08-20T17:41:10;3.55;;;1.15;;
18194;SDS011;9223;50.988;3.162;2023-08-20T17:47:14;2.08;;;0.80;;
18194;SDS011;9223;50.988;3.162;2023-08-20T17:53:17;2.85;;;0.90;;
18194;SDS011;9223;50.988;3.162;2023-08-20T17:59:22;4.43;;;1.02;;
18194;SDS011;9223;50.988;3.162;2023-08-20T18:05:26;2.97;;;1.08;;
18194;SDS011;9223;50.988;3.162;2023-08-20T18:11:29;4.35;;;1.35;;
18194;SDS011;9223;50.988;3.162;2023-08-20T18:17:34;5.47;;;2.55;;
18194;SDS011;9223;50.988;3.162;2023-08-20T18:23:38;3.63;;;1.80;;
18194;SDS011;9223;50.988;3.162;2023-08-20T18:29:41;6.10;;;2.20;;
18194;SDS011;9223;50.988;3.162;2023-08-20T18:35:46;3.38;;;2.17;;
18194;SDS011;9223;50.988;3.162;2023-08-20T18:41:49;3.67;;;1.40;;
18194;SDS011;9223;50.988;3.162;2023-08-20T18:47:53;3.88;;;1.40;;
18194;SDS011;9223;50.988;3.162;2023-08-20T18:53:58;4.10;;;0.95;;
18194;SDS011;9223;50.988;3.162;2023-08-20T19:00:02;3.47;;;1.20;;
18194;SDS011;9223;50.988;3.162;2023-08-20T19:06:07;4.38;;;1.20;;
18194;SDS011;9223;50.988;3.162;2023-08-20T19:12:12;8.50;;;1.52;;
18194;SDS011;9223;50.988;3.162;2023-08-20T19:18:16;4.00;;;1.20;;
18194;SDS011;9223;50.988;3.162;2023-08-20T19:24:20;4.15;;;0.98;;
18194;SDS011;9223;50.988;3.162;2023-08-20T19:30:25;2.00;;;1.13;;
18194;SDS011;9223;50.988;3.162;2023-08-20T19:36:31;5.25;;;1.10;;
18194;SDS011;9223;50.988;3.162;2023-08-20T19:42:34;4.55;;;1.00;;
18194;SDS011;9223;50.988;3.162;2023-08-20T19:48:40;3.45;;;0.95;;
18194;SDS011;9223;50.988;3.162;2023-08-20T19:54:43;2.90;;;0.95;;
18194;SDS011;9223;50.988;3.162;2023-08-20T20:00:47;3.90;;;1.23;;
18194;SDS011;9223;50.988;3.162;2023-08-20T20:06:52;5.78;;;1.35;;
18194;SDS011;9223;50.988;3.162;2023-08-20T20:13:03;3.70;;;1.48;;
18194;SDS011;9223;50.988;3.162;2023-08-20T20:19:07;3.30;;;1.73;;
18194;SDS011;9223;50.988;3.162;2023-08-20T20:25:12;3.80;;;1.50;;
18194;SDS011;9223;50.988;3.162;2023-08-20T20:31:16;8.25;;;1.60;;
18194;SDS011;9223;50.988;3.162;2023-08-20T20:37:19;2.78;;;1.40;;
18194;SDS011;9223;50.988;3.162;2023-08-20T20:43:24;4.03;;;1.30;;
18194;SDS011;9223;50.988;3.162;2023-08-20T20:49:28;2.70;;;1.63;;
18194;SDS011;9223;50.988;3.162;2023-08-20T20:55:32;5.88;;;2.03;;
18194;SDS011;9223;50.988;3.162;2023-08-20T21:01:36;6.28;;;2.35;;
18194;SDS011;9223;50.988;3.162;2023-08-20T21:07:40;6.00;;;2.70;;
18194;SDS011;9223;50.988;3.162;2023-08-20T21:13:43;5.43;;;2.63;;
18194;SDS011;9223;50.988;3.162;2023-08-20T21:19:48;6.30;;;2.67;;
18194;SDS011;9223;50.988;3.162;2023-08-20T21:25:52;6.55;;;3.15;;
18194;SDS011;9223;50.988;3.162;2023-08-20T21:31:56;4.03;;;2.20;;
18194;SDS011;9223;50.988;3.162;2023-08-20T21:38:00;6.15;;;3.22;;
18194;SDS011;9223;50.988;3.162;2023-08-20T21:44:04;5.45;;;2.90;;
18194;SDS011;9223;50.988;3.162;2023-08-20T21:50:08;8.70;;;2.92;;
18194;SDS011;9223;50.988;3.162;2023-08-20T21:56:12;7.50;;;2.63;;
18194;SDS011;9223;50.988;3.162;2023-08-20T22:02:16;6.45;;;2.33;;
18194;SDS011;9223;50.988;3.162;2023-08-20T22:08:20;6.38;;;2.15;;
18194;SDS011;9223;50.988;3.162;2023-08-20T22:14:25;6.32;;;3.17;;
18194;SDS011;9223;50.988;3.162;2023-08-20T22:20:29;4.20;;;2.05;;
18194;SDS011;9223;50.988;3.162;2023-08-20T22:26:33;3.70;;;2.20;;
18194;SDS011;9223;50.988;3.162;2023-08-20T22:32:38;3.65;;;2.30;;
18194;SDS011;9223;50.988;3.162;2023-08-20T22:38:42;5.93;;;1.90;;
18194;SDS011;9223;50.988;3.162;2023-08-20T22:44:49;6.93;;;2.67;;
18194;SDS011;9223;50.988;3.162;2023-08-20T22:50:53;4.95;;;2.75;;
18194;SDS011;9223;50.988;3.162;2023-08-20T22:56:57;3.95;;;2.60;;
18194;SDS011;9223;50.988;3.162;2023-08-20T23:03:00;6.68;;;3.60;;
18194;SDS011;9223;50.988;3.162;2023-08-20T23:09:05;3.35;;;2.00;;
18194;SDS011;9223;50.988;3.162;2023-08-20T23:15:09;4.40;;;2.88;;
18194;SDS011;9223;50.988;3.162;2023-08-20T23:21:12;4.35;;;2.83;;
18194;SDS011;9223;50.988;3.162;2023-08-20T23:27:17;4.68;;;2.83;;
18194;SDS011;9223;50.988;3.162;2023-08-20T23:33:21;4.15;;;2.90;;
18194;SDS011;9223;50.988;3.162;2023-08-20T23:39:25;8.02;;;3.20;;
18194;SDS011;9223;50.988;3.162;2023-08-20T23:45:30;4.80;;;2.25;;
18194;SDS011;9223;50.988;3.162;2023-08-20T23:51:33;4.18;;;2.50;;
18194;SDS011;9223;50.988;3.162;2023-08-20T23:57:37;3.60;;;2.40;;
